createdAt,value
2017-11-26T00:00:16.478Z,1010.10
2017-11-26T00:01:16.462Z,1010.00
2017-11-26T00:02:16.417Z,1010.21
2017-11-26T00:03:16.391Z,1010.19
2017-11-26T00:04:16.361Z,1010.31
2017-11-26T00:05:16.331Z,1010.24
2017-11-26T00:06:16.302Z,1010.09
2017-11-26T00:07:16.261Z,1010.08
2017-11-26T00:08:16.237Z,1010.22
2017-11-26T00:09:16.201Z,1010.19
2017-11-26T00:10:16.174Z,1010.27
2017-11-26T00:11:16.143Z,1010.19
2017-11-26T00:12:16.111Z,1010.29
2017-11-26T00:13:16.081Z,1010.11
2017-11-26T00:14:16.297Z,1010.24
2017-11-26T00:15:16.018Z,1010.18
2017-11-26T00:16:15.991Z,1010.17
2017-11-26T00:17:15.972Z,1010.19
2017-11-26T00:18:15.925Z,1010.22
2017-11-26T00:19:15.898Z,1010.25
2017-11-26T00:20:15.863Z,1010.21
2017-11-26T00:21:15.835Z,1010.33
2017-11-26T00:22:15.802Z,1010.25
2017-11-26T00:23:15.764Z,1010.16
2017-11-26T00:24:15.739Z,1010.12
2017-11-26T00:25:15.701Z,1010.09
2017-11-26T00:26:15.671Z,1010.09
2017-11-26T00:27:15.648Z,1010.20
2017-11-26T00:28:15.614Z,1010.03
2017-11-26T00:29:15.583Z,1010.13
2017-11-26T00:30:15.552Z,1010.03
2017-11-26T00:31:15.513Z,1009.98
2017-11-26T00:32:15.489Z,1010.09
2017-11-26T00:33:15.460Z,1010.10
2017-11-26T00:34:15.422Z,1010.00
2017-11-26T00:35:15.396Z,1009.94
2017-11-26T00:36:15.373Z,1009.90
2017-11-26T00:37:15.338Z,1010.01
2017-11-26T00:38:15.299Z,1009.91
2017-11-26T00:39:15.280Z,1009.86
2017-11-26T00:40:15.236Z,1009.94
2017-11-26T00:41:15.198Z,1009.90
2017-11-26T00:42:15.170Z,1009.89
2017-11-26T00:43:15.436Z,1010.03
2017-11-26T00:44:15.109Z,1010.02
2017-11-26T00:45:15.081Z,1009.97
2017-11-26T00:46:15.049Z,1010.05
2017-11-26T00:47:15.010Z,1009.92
2017-11-26T00:48:15.045Z,1009.95
2017-11-26T00:49:14.950Z,1010.01
2017-11-26T00:50:14.917Z,1009.96
2017-11-26T00:51:14.885Z,1010.00
2017-11-26T00:52:14.855Z,1009.99
2017-11-26T00:53:14.822Z,1010.00
2017-11-26T00:54:14.801Z,1010.03
2017-11-26T00:55:14.768Z,1009.92
2017-11-26T00:56:14.737Z,1010.04
2017-11-26T00:57:14.696Z,1010.00
2017-11-26T00:58:14.670Z,1010.10
2017-11-26T00:59:14.647Z,1010.10
2017-11-26T01:00:14.615Z,1010.02
2017-11-26T01:01:14.576Z,1010.05
2017-11-26T01:02:14.538Z,1010.09
2017-11-26T01:03:14.513Z,1010.03
2017-11-26T01:04:14.478Z,1010.04
2017-11-26T01:05:14.448Z,1009.98
2017-11-26T01:06:14.674Z,1009.90
2017-11-26T01:07:14.384Z,1010.07
2017-11-26T01:08:14.352Z,1010.16
2017-11-26T01:09:14.326Z,1010.06
2017-11-26T01:10:14.293Z,1010.17
2017-11-26T01:11:14.265Z,1010.06
2017-11-26T01:12:14.230Z,1010.07
2017-11-26T01:13:14.199Z,1010.09
2017-11-26T01:14:14.170Z,1010.16
2017-11-26T01:15:14.142Z,1010.09
2017-11-26T01:16:14.109Z,1010.19
2017-11-26T01:17:14.070Z,1010.20
2017-11-26T01:18:14.349Z,1010.07
2017-11-26T01:19:14.014Z,1010.16
2017-11-26T01:20:13.976Z,1010.14
2017-11-26T01:21:13.957Z,1010.23
2017-11-26T01:22:13.917Z,1010.06
2017-11-26T01:23:13.889Z,1010.21
2017-11-26T01:24:13.855Z,1010.17
2017-11-26T01:25:13.822Z,1010.25
2017-11-26T01:26:13.792Z,1010.22
2017-11-26T01:27:13.758Z,1010.24
2017-11-26T01:28:13.731Z,1010.13
2017-11-26T01:29:13.703Z,1010.25
2017-11-26T01:30:13.920Z,1010.13
2017-11-26T01:31:13.630Z,1010.23
2017-11-26T01:32:13.605Z,1010.18
2017-11-26T01:33:13.571Z,1010.20
2017-11-26T01:34:13.539Z,1010.13
2017-11-26T01:35:13.513Z,1010.18
2017-11-26T01:36:13.730Z,1010.10
2017-11-26T01:37:13.442Z,1010.20
2017-11-26T01:38:13.406Z,1010.21
2017-11-26T01:39:13.386Z,1010.18
2017-11-26T01:40:13.358Z,1010.23
2017-11-26T01:41:13.325Z,1010.20
2017-11-26T01:42:13.281Z,1010.25
2017-11-26T01:43:13.251Z,1010.13
2017-11-26T01:44:13.223Z,1010.13
2017-11-26T01:45:13.193Z,1010.09
2017-11-26T01:46:13.156Z,1010.12
2017-11-26T01:47:13.129Z,1010.20
2017-11-26T01:48:13.091Z,1010.10
2017-11-26T01:49:13.059Z,1010.15
2017-11-26T01:50:13.034Z,1010.09
2017-11-26T01:51:13.004Z,1010.02
2017-11-26T01:52:12.970Z,1010.17
2017-11-26T01:53:12.935Z,1010.25
2017-11-26T01:54:13.157Z,1010.16
2017-11-26T01:55:12.880Z,1010.14
2017-11-26T01:56:12.840Z,1010.00
2017-11-26T01:57:12.815Z,1010.08
2017-11-26T01:58:12.781Z,1009.98
2017-11-26T01:59:12.757Z,1009.99
2017-11-26T02:00:12.716Z,1010.11
2017-11-26T02:01:12.679Z,1010.01
2017-11-26T02:02:12.650Z,1009.86
2017-11-26T02:03:12.620Z,1010.10
2017-11-26T02:04:12.608Z,1010.12
2017-11-26T02:05:12.862Z,1010.19
2017-11-26T02:06:12.532Z,1010.06
2017-11-26T02:07:12.493Z,1010.00
2017-11-26T02:08:12.461Z,1010.05
2017-11-26T02:09:12.437Z,1010.13
2017-11-26T02:10:12.393Z,1010.19
2017-11-26T02:11:12.673Z,1010.11
2017-11-26T02:12:12.331Z,1010.15
2017-11-26T02:13:12.305Z,1009.82
2017-11-26T02:14:12.276Z,1010.11
2017-11-26T02:15:12.248Z,1009.79
2017-11-26T02:16:12.211Z,1010.21
2017-11-26T02:17:12.178Z,1010.22
2017-11-26T02:18:12.144Z,1010.09
2017-11-26T02:19:12.107Z,1010.10
2017-11-26T02:20:12.090Z,1010.20
2017-11-26T02:21:12.048Z,1010.13
2017-11-26T02:22:12.027Z,1010.20
2017-11-26T02:23:11.991Z,1010.10
2017-11-26T02:24:11.950Z,1010.20
2017-11-26T02:25:11.927Z,1010.23
2017-11-26T02:26:11.889Z,1010.14
2017-11-26T02:27:11.859Z,1009.94
2017-11-26T02:28:12.181Z,1010.01
2017-11-26T02:29:11.792Z,1010.11
2017-11-26T02:30:11.767Z,1010.13
2017-11-26T02:31:11.739Z,1010.08
2017-11-26T02:32:11.705Z,1010.25
2017-11-26T02:33:11.675Z,1010.16
2017-11-26T02:34:11.940Z,1010.11
2017-11-26T02:35:11.603Z,1010.09
2017-11-26T02:36:11.579Z,1010.05
2017-11-26T02:37:11.538Z,1010.15
2017-11-26T02:38:11.516Z,1010.15
2017-11-26T02:39:11.477Z,1010.17
2017-11-26T02:40:11.699Z,1010.16
2017-11-26T02:41:11.423Z,1010.01
2017-11-26T02:42:11.383Z,1010.19
2017-11-26T02:43:11.362Z,1010.19
2017-11-26T02:44:11.320Z,1010.18
2017-11-26T02:45:11.289Z,1010.18
2017-11-26T02:46:11.267Z,1010.19
2017-11-26T02:47:11.224Z,1010.20
2017-11-26T02:48:11.194Z,1010.16
2017-11-26T02:49:11.158Z,1010.17
2017-11-26T02:50:11.125Z,1010.11
2017-11-26T02:51:11.093Z,1010.25
2017-11-26T02:52:11.074Z,1010.23
2017-11-26T02:53:11.038Z,1010.26
2017-11-26T02:54:11.009Z,1010.08
2017-11-26T02:55:10.974Z,1010.22
2017-11-26T02:56:10.942Z,1010.29
2017-11-26T02:57:10.917Z,1010.24
2017-11-26T02:58:11.223Z,1010.14
2017-11-26T02:59:10.841Z,1010.20
2017-11-26T03:00:10.811Z,1010.15
2017-11-26T03:01:10.778Z,1010.27
2017-11-26T03:02:10.752Z,1010.05
2017-11-26T03:03:10.715Z,1010.08
2017-11-26T03:04:11.003Z,1010.10
2017-11-26T03:05:10.659Z,1010.21
2017-11-26T03:06:10.623Z,1010.15
2017-11-26T03:07:10.593Z,1010.15
2017-11-26T03:08:10.565Z,1010.12
2017-11-26T03:09:10.535Z,1010.10
2017-11-26T03:10:10.494Z,1009.89
2017-11-26T03:11:10.474Z,1010.27
2017-11-26T03:12:10.436Z,1009.99
2017-11-26T03:13:10.412Z,1010.16
2017-11-26T03:14:10.376Z,1010.22
2017-11-26T03:15:10.343Z,1010.22
2017-11-26T03:16:10.658Z,1010.28
2017-11-26T03:17:10.281Z,1010.28
2017-11-26T03:18:10.239Z,1010.33
2017-11-26T03:19:10.218Z,1010.35
2017-11-26T03:20:10.189Z,1010.24
2017-11-26T03:21:10.152Z,1010.13
2017-11-26T03:22:10.836Z,1010.23
2017-11-26T03:23:10.085Z,1010.19
2017-11-26T03:24:10.064Z,1010.34
2017-11-26T03:25:10.031Z,1010.22
2017-11-26T03:26:09.987Z,1010.33
2017-11-26T03:27:09.955Z,1010.39
2017-11-26T03:28:09.932Z,1010.39
2017-11-26T03:29:09.899Z,1010.36
2017-11-26T03:30:09.873Z,1010.37
2017-11-26T03:31:09.831Z,1010.37
2017-11-26T03:32:09.797Z,1010.27
2017-11-26T03:33:10.075Z,1010.36
2017-11-26T03:34:09.742Z,1010.42
2017-11-26T03:35:09.703Z,1010.55
2017-11-26T03:36:09.678Z,1010.21
2017-11-26T03:37:09.645Z,1010.27
2017-11-26T03:38:09.617Z,1010.29
2017-11-26T03:39:09.578Z,1010.30
2017-11-26T03:40:09.556Z,1010.49
2017-11-26T03:41:09.521Z,1010.36
2017-11-26T03:42:09.489Z,1010.41
2017-11-26T03:43:09.449Z,1010.32
2017-11-26T03:44:09.425Z,1010.38
2017-11-26T03:45:09.642Z,1010.41
2017-11-26T03:46:09.362Z,1010.30
2017-11-26T03:47:09.323Z,1010.11
2017-11-26T03:48:09.293Z,1010.35
2017-11-26T03:49:09.262Z,1010.38
2017-11-26T03:50:09.238Z,1010.18
2017-11-26T03:51:09.197Z,1010.14
2017-11-26T03:52:09.178Z,1010.33
2017-11-26T03:53:09.135Z,1010.43
2017-11-26T03:54:09.109Z,1010.40
2017-11-26T03:55:09.080Z,1010.37
2017-11-26T03:56:09.890Z,1010.40
2017-11-26T03:57:09.017Z,1010.41
2017-11-26T03:58:08.979Z,1010.22
2017-11-26T03:59:08.973Z,1010.33
2017-11-26T04:00:08.919Z,1010.40
2017-11-26T04:01:08.882Z,1010.29
2017-11-26T04:02:08.858Z,1010.30
2017-11-26T04:03:08.820Z,1010.14
2017-11-26T04:04:08.785Z,1010.33
2017-11-26T04:05:08.759Z,1010.34
2017-11-26T04:06:08.724Z,1010.19
2017-11-26T04:07:08.695Z,1010.35
2017-11-26T04:08:08.967Z,1010.08
2017-11-26T04:09:08.629Z,1010.00
2017-11-26T04:10:08.600Z,1010.20
2017-11-26T04:11:08.565Z,1010.29
2017-11-26T04:12:08.542Z,1010.28
2017-11-26T04:13:08.518Z,1010.34
2017-11-26T04:14:08.729Z,1010.23
2017-11-26T04:15:08.441Z,1010.25
2017-11-26T04:16:08.422Z,1010.25
2017-11-26T04:17:08.375Z,1010.29
2017-11-26T04:18:08.356Z,1010.17
2017-11-26T04:19:08.324Z,1010.29
2017-11-26T04:20:08.289Z,1010.29
2017-11-26T04:21:08.258Z,1010.22
2017-11-26T04:22:08.219Z,1010.28
2017-11-26T04:23:08.181Z,1010.34
2017-11-26T04:24:08.159Z,1010.22
2017-11-26T04:25:08.384Z,1010.33
2017-11-26T04:26:08.091Z,1010.27
2017-11-26T04:27:08.065Z,1010.38
2017-11-26T04:28:08.024Z,1010.29
2017-11-26T04:29:08.003Z,1010.23
2017-11-26T04:30:07.967Z,1010.10
2017-11-26T04:31:08.188Z,1010.25
2017-11-26T04:32:07.905Z,1010.09
2017-11-26T04:33:07.877Z,1010.28
2017-11-26T04:34:07.837Z,1010.27
2017-11-26T04:35:07.808Z,1010.24
2017-11-26T04:36:07.775Z,1010.24
2017-11-26T04:37:08.044Z,1010.27
2017-11-26T04:38:07.721Z,1010.11
2017-11-26T04:39:07.684Z,1010.18
2017-11-26T04:40:07.649Z,1010.10
2017-11-26T04:41:07.609Z,1010.09
2017-11-26T04:42:07.585Z,1010.13
2017-11-26T04:43:07.559Z,1010.09
2017-11-26T04:44:07.524Z,1010.11
2017-11-26T04:45:07.489Z,1010.16
2017-11-26T04:46:07.454Z,1010.01
2017-11-26T04:47:07.422Z,1010.17
2017-11-26T04:48:07.400Z,1010.11
2017-11-26T04:49:07.364Z,1010.18
2017-11-26T04:50:07.331Z,1009.98
2017-11-26T04:51:07.294Z,1010.20
2017-11-26T04:52:07.261Z,1010.09
2017-11-26T04:53:07.242Z,1010.24
2017-11-26T04:54:07.205Z,1010.06
2017-11-26T04:55:07.165Z,1010.23
2017-11-26T04:56:07.145Z,1010.26
2017-11-26T04:57:07.106Z,1010.20
2017-11-26T04:58:07.081Z,1010.30
2017-11-26T04:59:07.042Z,1010.28
2017-11-26T05:00:07.011Z,1010.21
2017-11-26T05:01:07.227Z,1010.31
2017-11-26T05:02:06.947Z,1010.23
2017-11-26T05:03:06.921Z,1010.31
2017-11-26T05:04:06.882Z,1010.10
2017-11-26T05:05:06.859Z,1010.30
2017-11-26T05:06:06.820Z,1010.27
2017-11-26T05:07:07.044Z,1010.35
2017-11-26T05:08:06.763Z,1010.24
2017-11-26T05:09:06.735Z,1010.14
2017-11-26T05:10:06.701Z,1010.32
2017-11-26T05:11:06.662Z,1010.32
2017-11-26T05:12:06.633Z,1010.31
2017-11-26T05:13:06.906Z,1010.30
2017-11-26T05:14:06.573Z,1010.20
2017-11-26T05:15:06.548Z,1010.26
2017-11-26T05:16:06.510Z,1010.13
2017-11-26T05:17:06.485Z,1010.24
2017-11-26T05:18:06.451Z,1010.12
2017-11-26T05:19:06.662Z,1010.24
2017-11-26T05:20:06.385Z,1010.18
2017-11-26T05:21:06.358Z,1010.22
2017-11-26T05:22:06.322Z,1010.28
2017-11-26T05:23:06.295Z,1010.24
2017-11-26T05:24:06.256Z,1010.27
2017-11-26T05:25:06.232Z,1010.19
2017-11-26T05:26:06.193Z,1010.40
2017-11-26T05:27:06.163Z,1010.25
2017-11-26T05:28:06.147Z,1010.33
2017-11-26T05:29:06.104Z,1010.41
2017-11-26T05:30:06.078Z,1010.42
2017-11-26T05:31:06.041Z,1010.29
2017-11-26T05:32:06.008Z,1010.22
2017-11-26T05:33:05.986Z,1010.10
2017-11-26T05:34:05.953Z,1010.30
2017-11-26T05:35:05.928Z,1010.38
2017-11-26T05:36:05.893Z,1010.34
2017-11-26T05:37:05.864Z,1010.22
2017-11-26T05:38:05.829Z,1010.19
2017-11-26T05:39:05.807Z,1010.23
2017-11-26T05:40:05.762Z,1010.21
2017-11-26T05:41:05.735Z,1010.36
2017-11-26T05:42:05.699Z,1010.32
2017-11-26T05:43:05.665Z,1010.13
2017-11-26T05:44:05.642Z,1010.15
2017-11-26T05:45:05.611Z,1010.02
2017-11-26T05:46:05.573Z,1010.41
2017-11-26T05:47:05.548Z,1010.37
2017-11-26T05:48:05.523Z,1010.16
2017-11-26T05:49:05.482Z,1010.27
2017-11-26T05:50:05.453Z,1010.02
2017-11-26T05:51:05.426Z,1010.20
2017-11-26T05:52:05.394Z,1010.28
2017-11-26T05:53:05.372Z,1009.96
2017-11-26T05:54:05.625Z,1010.22
2017-11-26T05:55:05.310Z,1010.18
2017-11-26T05:56:05.268Z,1010.19
2017-11-26T05:57:05.245Z,1010.23
2017-11-26T05:58:05.206Z,1010.14
2017-11-26T05:59:05.173Z,1010.16
2017-11-26T06:00:05.395Z,1010.18
2017-11-26T06:01:05.120Z,1010.21
2017-11-26T06:02:05.075Z,1010.28
2017-11-26T06:03:05.052Z,1010.12
2017-11-26T06:04:05.021Z,1010.39
2017-11-26T06:05:04.999Z,1010.02
2017-11-26T06:06:04.952Z,1010.23
2017-11-26T06:07:04.926Z,1010.18
2017-11-26T06:08:04.894Z,1010.11
2017-11-26T06:09:04.886Z,1010.00
2017-11-26T06:10:04.839Z,1010.16
2017-11-26T06:11:04.798Z,1009.98
2017-11-26T06:12:04.768Z,1010.14
2017-11-26T06:13:04.743Z,1010.14
2017-11-26T06:14:04.705Z,1010.11
2017-11-26T06:15:04.686Z,1010.10
2017-11-26T06:16:04.656Z,1010.10
2017-11-26T06:17:04.629Z,1010.15
2017-11-26T06:18:04.587Z,1010.10
2017-11-26T06:19:04.552Z,1010.21
2017-11-26T06:20:04.524Z,1010.28
2017-11-26T06:21:04.489Z,1010.21
2017-11-26T06:22:04.473Z,1010.07
2017-11-26T06:23:04.738Z,1009.83
2017-11-26T06:24:04.397Z,1010.22
2017-11-26T06:25:04.369Z,1010.26
2017-11-26T06:26:04.340Z,1010.35
2017-11-26T06:27:04.313Z,1010.19
2017-11-26T06:28:04.281Z,1010.33
2017-11-26T06:29:04.250Z,1010.40
2017-11-26T06:30:04.209Z,1010.45
2017-11-26T06:31:04.182Z,1010.27
2017-11-26T06:32:04.146Z,1010.27
2017-11-26T06:33:04.117Z,1010.24
2017-11-26T06:34:04.099Z,1010.32
2017-11-26T06:35:04.310Z,1010.39
2017-11-26T06:36:04.070Z,1010.34
2017-11-26T06:37:03.996Z,1010.30
2017-11-26T06:38:03.972Z,1010.11
2017-11-26T06:39:03.941Z,1010.18
2017-11-26T06:40:03.909Z,1010.33
2017-11-26T06:41:04.171Z,1010.33
2017-11-26T06:42:03.837Z,1010.25
2017-11-26T06:43:03.809Z,1010.36
2017-11-26T06:44:03.782Z,1010.39
2017-11-26T06:45:03.744Z,1010.45
2017-11-26T06:46:03.718Z,1010.45
2017-11-26T06:47:03.938Z,1010.45
2017-11-26T06:48:03.650Z,1010.54
2017-11-26T06:49:03.619Z,1010.50
2017-11-26T06:50:03.601Z,1010.32
2017-11-26T06:51:03.563Z,1010.53
2017-11-26T06:52:03.536Z,1010.54
2017-11-26T06:53:03.753Z,1010.72
2017-11-26T06:54:03.473Z,1010.57
2017-11-26T06:55:03.442Z,1010.41
2017-11-26T06:56:03.403Z,1010.29
2017-11-26T06:57:03.378Z,1010.65
2017-11-26T06:58:03.344Z,1010.61
2017-11-26T06:59:03.567Z,1010.52
2017-11-26T07:00:03.284Z,1010.95
2017-11-26T07:01:03.253Z,1010.69
2017-11-26T07:02:03.215Z,1010.76
2017-11-26T07:03:03.192Z,1010.91
2017-11-26T07:04:03.156Z,1010.43
2017-11-26T07:05:03.427Z,1010.73
2017-11-26T07:06:03.107Z,1010.41
2017-11-26T07:07:03.061Z,1010.64
2017-11-26T07:08:03.031Z,1010.82
2017-11-26T07:09:03.017Z,1010.89
2017-11-26T07:10:02.974Z,1010.81
2017-11-26T07:11:03.199Z,1010.96
2017-11-26T07:12:02.920Z,1010.75
2017-11-26T07:13:02.884Z,1010.94
2017-11-26T07:14:02.853Z,1010.87
2017-11-26T07:15:02.831Z,1010.65
2017-11-26T07:16:02.790Z,1010.82
2017-11-26T07:17:03.065Z,1010.87
2017-11-26T07:18:02.723Z,1010.73
2017-11-26T07:19:02.693Z,1010.96
2017-11-26T07:20:02.667Z,1010.66
2017-11-26T07:21:02.627Z,1010.96
2017-11-26T07:22:02.598Z,1010.98
2017-11-26T07:23:02.927Z,1010.83
2017-11-26T07:24:02.536Z,1010.91
2017-11-26T07:25:02.505Z,1010.85
2017-11-26T07:26:02.478Z,1011.04
2017-11-26T07:27:02.458Z,1011.07
2017-11-26T07:28:02.421Z,1010.98
2017-11-26T07:29:02.633Z,1011.01
2017-11-26T07:30:02.364Z,1011.05
2017-11-26T07:31:02.319Z,1010.77
2017-11-26T07:32:02.290Z,1010.69
2017-11-26T07:33:02.273Z,1010.99
2017-11-26T07:34:02.231Z,1011.03
2017-11-26T07:35:02.496Z,1010.99
2017-11-26T07:36:02.173Z,1011.09
2017-11-26T07:37:02.145Z,1011.04
2017-11-26T07:38:02.112Z,1011.10
2017-11-26T07:39:02.077Z,1011.11
2017-11-26T07:40:02.049Z,1011.07
2017-11-26T07:41:02.011Z,1010.89
2017-11-26T07:42:01.988Z,1011.01
2017-11-26T07:43:01.952Z,1011.00
2017-11-26T07:44:01.931Z,1010.95
2017-11-26T07:45:01.900Z,1011.14
2017-11-26T07:46:01.857Z,1011.25
2017-11-26T07:47:02.146Z,1011.36
2017-11-26T07:48:01.795Z,1011.01
2017-11-26T07:49:01.765Z,1011.10
2017-11-26T07:50:01.739Z,1011.13
2017-11-26T07:51:01.702Z,1010.94
2017-11-26T07:52:01.693Z,1011.17
2017-11-26T07:53:01.893Z,1011.12
2017-11-26T07:54:01.617Z,1011.14
2017-11-26T07:55:01.586Z,1011.24
2017-11-26T07:56:01.550Z,1011.27
2017-11-26T07:57:01.529Z,1011.15
2017-11-26T07:58:01.492Z,1011.11
2017-11-26T07:59:01.455Z,1011.30
2017-11-26T08:00:01.436Z,1011.36
2017-11-26T08:01:01.397Z,1011.17
2017-11-26T08:02:01.378Z,1011.26
2017-11-26T08:03:01.348Z,1011.06
2017-11-26T08:04:01.310Z,1011.27
2017-11-26T08:05:01.279Z,1011.31
2017-11-26T08:06:01.245Z,1011.16
2017-11-26T08:07:01.219Z,1011.14
2017-11-26T08:08:01.193Z,1011.20
2017-11-26T08:09:01.154Z,1011.27
2017-11-26T08:10:01.116Z,1011.16
2017-11-26T08:11:01.087Z,1011.03
2017-11-26T08:12:01.062Z,1011.24
2017-11-26T08:13:01.038Z,1011.17
2017-11-26T08:14:01.002Z,1011.25
2017-11-26T08:15:00.971Z,1010.67
2017-11-26T08:16:00.936Z,1011.11
2017-11-26T08:17:00.909Z,1011.12
2017-11-26T08:18:00.879Z,1010.97
2017-11-26T08:19:00.843Z,1010.69
2017-11-26T08:20:00.817Z,1010.82
2017-11-26T08:21:00.796Z,1011.19
2017-11-26T08:22:00.770Z,1011.23
2017-11-26T08:23:01.074Z,1011.15
2017-11-26T08:24:00.692Z,1011.11
2017-11-26T08:25:00.660Z,1011.03
2017-11-26T08:26:00.628Z,1010.99
2017-11-26T08:27:00.610Z,1011.18
2017-11-26T08:28:00.573Z,1011.20
2017-11-26T08:29:00.793Z,1011.23
2017-11-26T08:30:00.505Z,1011.31
2017-11-26T08:31:00.480Z,1010.93
2017-11-26T08:32:00.446Z,1011.15
2017-11-26T08:33:00.418Z,1011.14
2017-11-26T08:34:00.388Z,1011.21
2017-11-26T08:35:00.358Z,1011.18
2017-11-26T08:36:00.326Z,1011.08
2017-11-26T08:37:00.300Z,1010.85
2017-11-26T08:38:00.269Z,1011.06
2017-11-26T08:39:00.241Z,1011.17
2017-11-26T08:40:00.209Z,1011.21
2017-11-26T08:41:00.182Z,1011.28
2017-11-26T08:42:00.141Z,1011.15
2017-11-26T08:43:00.119Z,1011.07
2017-11-26T08:44:00.089Z,1011.14
2017-11-26T08:45:00.063Z,1011.38
2017-11-26T08:46:00.026Z,1011.09
2017-11-26T08:47:00.247Z,1011.14
2017-11-26T08:47:59.975Z,1011.10
2017-11-26T08:48:59.929Z,1011.43
2017-11-26T08:49:59.898Z,1011.22
2017-11-26T08:50:59.869Z,1011.16
2017-11-26T08:51:59.848Z,1011.44
2017-11-26T08:53:00.071Z,1011.44
2017-11-26T08:53:59.789Z,1011.31
2017-11-26T08:54:59.757Z,1011.01
2017-11-26T08:55:59.724Z,1011.33
2017-11-26T08:56:59.695Z,1011.36
2017-11-26T08:57:59.668Z,1011.10
2017-11-26T08:58:59.638Z,1011.40
2017-11-26T08:59:59.602Z,1011.44
2017-11-26T09:00:59.574Z,1011.47
2017-11-26T09:01:59.551Z,1011.35
2017-11-26T09:02:59.505Z,1011.45
2017-11-26T09:03:59.480Z,1011.50
2017-11-26T09:04:59.458Z,1011.07
2017-11-26T09:05:59.420Z,1011.42
2017-11-26T09:06:59.384Z,1011.37
2017-11-26T09:07:59.355Z,1011.46
2017-11-26T09:08:59.345Z,1011.45
2017-11-26T09:09:59.302Z,1011.35
2017-11-26T09:10:59.270Z,1011.36
2017-11-26T09:11:59.238Z,1011.39
2017-11-26T09:12:59.204Z,1011.33
2017-11-26T09:13:59.173Z,1011.48
2017-11-26T09:14:59.149Z,1011.42
2017-11-26T09:15:59.122Z,1011.42
2017-11-26T09:16:59.341Z,1011.51
2017-11-26T09:17:59.065Z,1011.44
2017-11-26T09:18:59.033Z,1011.40
2017-11-26T09:19:59.006Z,1011.51
2017-11-26T09:20:58.970Z,1011.62
2017-11-26T09:21:58.935Z,1011.60
2017-11-26T09:22:59.166Z,1011.51
2017-11-26T09:23:58.874Z,1011.51
2017-11-26T09:24:58.857Z,1011.47
2017-11-26T09:25:58.813Z,1011.52
2017-11-26T09:26:58.798Z,1011.54
2017-11-26T09:27:58.761Z,1011.59
2017-11-26T09:28:58.735Z,1011.65
2017-11-26T09:29:58.701Z,1011.61
2017-11-26T09:30:58.669Z,1011.60
2017-11-26T09:31:58.638Z,1011.56
2017-11-26T09:32:58.604Z,1011.57
2017-11-26T09:33:58.578Z,1011.55
2017-11-26T09:34:58.546Z,1011.56
2017-11-26T09:35:58.519Z,1011.40
2017-11-26T09:36:58.494Z,1011.53
2017-11-26T09:37:58.452Z,1011.56
2017-11-26T09:38:58.430Z,1011.58
2017-11-26T09:39:58.407Z,1011.63
2017-11-26T09:40:58.720Z,1011.55
2017-11-26T09:41:58.337Z,1011.25
2017-11-26T09:42:58.312Z,1011.54
2017-11-26T09:43:58.287Z,1011.37
2017-11-26T09:44:58.247Z,1011.25
2017-11-26T09:45:58.216Z,1011.66
2017-11-26T09:46:58.191Z,1011.69
2017-11-26T09:47:58.156Z,1011.52
2017-11-26T09:48:58.124Z,1011.56
2017-11-26T09:49:58.103Z,1011.62
2017-11-26T09:50:58.075Z,1011.57
2017-11-26T09:51:58.037Z,1011.62
2017-11-26T09:52:58.355Z,1011.56
2017-11-26T09:53:57.985Z,1011.53
2017-11-26T09:54:57.950Z,1011.55
2017-11-26T09:55:57.926Z,1011.26
2017-11-26T09:56:57.892Z,1011.13
2017-11-26T09:57:57.863Z,1011.38
2017-11-26T09:58:58.586Z,1011.52
2017-11-26T09:59:57.804Z,1011.34
2017-11-26T10:00:57.771Z,1011.49
2017-11-26T10:01:57.735Z,1011.52
2017-11-26T10:02:57.706Z,1011.46
2017-11-26T10:03:57.683Z,1011.05
2017-11-26T10:04:57.647Z,1011.38
2017-11-26T10:05:57.614Z,1011.47
2017-11-26T10:06:57.592Z,1011.51
2017-11-26T10:07:57.562Z,1011.31
2017-11-26T10:08:57.528Z,1011.41
2017-11-26T10:09:57.505Z,1011.47
2017-11-26T10:10:57.474Z,1011.28
2017-11-26T10:11:57.445Z,1011.61
2017-11-26T10:12:57.407Z,1011.42
2017-11-26T10:13:57.377Z,1011.47
2017-11-26T10:14:57.366Z,1011.32
2017-11-26T10:15:57.328Z,1011.29
2017-11-26T10:16:57.298Z,1011.45
2017-11-26T10:17:57.268Z,1011.27
2017-11-26T10:18:57.240Z,1011.39
2017-11-26T10:19:57.212Z,1011.49
2017-11-26T10:20:57.171Z,1011.40
2017-11-26T10:21:57.156Z,1011.33
2017-11-26T10:22:57.374Z,1011.39
2017-11-26T10:23:57.100Z,1011.58
2017-11-26T10:24:57.063Z,1011.28
2017-11-26T10:25:57.027Z,1011.51
2017-11-26T10:26:56.990Z,1010.89
2017-11-26T10:27:56.964Z,1011.24
2017-11-26T10:28:56.935Z,1011.34
2017-11-26T10:29:56.913Z,1011.34
2017-11-26T10:30:56.882Z,1011.15
2017-11-26T10:31:56.849Z,1011.42
2017-11-26T10:32:56.816Z,1011.42
2017-11-26T10:33:56.787Z,1011.39
2017-11-26T10:34:56.764Z,1011.38
2017-11-26T10:35:56.733Z,1011.27
2017-11-26T10:36:56.708Z,1011.24
2017-11-26T10:37:56.673Z,1011.44
2017-11-26T10:38:56.644Z,1011.29
2017-11-26T10:39:56.622Z,1011.32
2017-11-26T10:40:56.583Z,1011.39
2017-11-26T10:41:56.560Z,1011.35
2017-11-26T10:42:56.524Z,1011.39
2017-11-26T10:43:56.496Z,1011.38
2017-11-26T10:44:56.469Z,1011.43
2017-11-26T10:45:56.436Z,1011.49
2017-11-26T10:46:56.406Z,1011.33
2017-11-26T10:47:56.376Z,1011.34
2017-11-26T10:48:56.348Z,1011.20
2017-11-26T10:49:56.313Z,1011.34
2017-11-26T10:50:56.293Z,1011.43
2017-11-26T10:51:56.257Z,1011.19
2017-11-26T10:52:56.242Z,1011.33
2017-11-26T10:53:56.200Z,1011.02
2017-11-26T10:54:56.169Z,1011.21
2017-11-26T10:55:56.138Z,1011.22
2017-11-26T10:56:56.107Z,1011.28
2017-11-26T10:57:56.078Z,1011.16
2017-11-26T10:58:56.306Z,1011.19
2017-11-26T10:59:56.016Z,1011.48
2017-11-26T11:00:55.993Z,1011.35
2017-11-26T11:01:55.962Z,1011.26
2017-11-26T11:02:55.940Z,1011.46
2017-11-26T11:03:55.897Z,1011.46
2017-11-26T11:04:55.879Z,1011.25
2017-11-26T11:05:55.847Z,1011.26
2017-11-26T11:06:55.806Z,1011.18
2017-11-26T11:07:55.780Z,1011.23
2017-11-26T11:08:55.755Z,1011.35
2017-11-26T11:09:55.726Z,1011.40
2017-11-26T11:10:55.691Z,1011.29
2017-11-26T11:11:55.667Z,1011.28
2017-11-26T11:12:55.646Z,1011.39
2017-11-26T11:13:55.611Z,1011.30
2017-11-26T11:14:55.571Z,1011.47
2017-11-26T11:15:55.549Z,1011.25
2017-11-26T11:16:55.514Z,1011.35
2017-11-26T11:17:55.495Z,1011.12
2017-11-26T11:18:55.455Z,1011.33
2017-11-26T11:19:55.440Z,1010.87
2017-11-26T11:20:55.402Z,1011.26
2017-11-26T11:21:55.372Z,1011.08
2017-11-26T11:22:55.342Z,1011.47
2017-11-26T11:23:55.316Z,1011.42
2017-11-26T11:24:55.277Z,1011.27
2017-11-26T11:25:55.253Z,1011.37
2017-11-26T11:26:55.229Z,1010.77
2017-11-26T11:27:55.188Z,1011.05
2017-11-26T11:28:55.160Z,1011.51
2017-11-26T11:29:55.137Z,1011.32
2017-11-26T11:30:55.104Z,1011.41
2017-11-26T11:31:55.076Z,1011.29
2017-11-26T11:32:55.050Z,1011.45
2017-11-26T11:33:55.016Z,1011.33
2017-11-26T11:34:54.986Z,1011.30
2017-11-26T11:35:54.953Z,1011.41
2017-11-26T11:36:54.929Z,1011.33
2017-11-26T11:37:54.892Z,1011.25
2017-11-26T11:38:54.866Z,1011.40
2017-11-26T11:39:54.840Z,1011.18
2017-11-26T11:40:54.808Z,1011.35
2017-11-26T11:41:54.784Z,1011.13
2017-11-26T11:42:54.752Z,1011.52
2017-11-26T11:43:54.722Z,1011.27
2017-11-26T11:44:54.683Z,1011.48
2017-11-26T11:45:54.665Z,1011.41
2017-11-26T11:46:54.924Z,1011.43
2017-11-26T11:47:54.602Z,1011.45
2017-11-26T11:48:54.572Z,1011.32
2017-11-26T11:49:54.536Z,1011.38
2017-11-26T11:50:54.509Z,1011.54
2017-11-26T11:51:54.484Z,1011.30
2017-11-26T11:52:54.457Z,1011.65
2017-11-26T11:53:54.422Z,1011.45
2017-11-26T11:54:54.418Z,1011.59
2017-11-26T11:55:54.363Z,1011.48
2017-11-26T11:56:54.343Z,1011.61
2017-11-26T11:57:54.305Z,1011.48
2017-11-26T11:58:54.271Z,1011.48
2017-11-26T11:59:54.248Z,1011.60
2017-11-26T12:00:54.220Z,1011.65
2017-11-26T12:01:54.189Z,1011.58
2017-11-26T12:02:54.159Z,1011.40
2017-11-26T12:03:54.380Z,1011.48
2017-11-26T12:04:54.101Z,1011.42